Loop, Texas
Current Conditions -  °F | °C
As of 2:15 AM on Monday 24 Nov 2014 (Local Time) from KGNC Reporting Station
Clear Clear  
Wind Chill: 35°   Ceiling: Unl
Heat Index: 35°   Visibility: 10mi
Dew Point: 26°   Wind: 0mph
Humidity: 71%   Direction: NA
Pressure: 30.03"   Gusts: NA
Location:  32.92°N, 102.42°W
Report Text: KGNC 240815Z AUTO 00000KT 10SM CLR 02/M03 A3003 RMK AO2 T00161031
Loading
Personal Weather Stations






























Interactive Weather Map New forecast layout! Learn more

10-Day Weather Forecast

Advertisements
Track Severe Weather on mobile